sensor_id;sensor_type;location;lat;lon;timestamp;P1;durP1;ratioP1;P2;durP2;ratioP2
20997;SDS011;10657;51.276;6.390;2023-07-09T00:02:09;15.90;;;5.88;;
20997;SDS011;10657;51.276;6.390;2023-07-09T00:04:37;12.68;;;5.35;;
20997;SDS011;10657;51.276;6.390;2023-07-09T00:07:04;10.10;;;5.10;;
20997;SDS011;10657;51.276;6.390;2023-07-09T00:09:32;15.27;;;4.90;;
20997;SDS011;10657;51.276;6.390;2023-07-09T00:12:00;9.77;;;5.57;;
20997;SDS011;10657;51.276;6.390;2023-07-09T00:14:26;12.35;;;5.53;;
20997;SDS011;10657;51.276;6.390;2023-07-09T00:16:53;14.63;;;6.70;;
20997;SDS011;10657;51.276;6.390;2023-07-09T00:19:21;13.38;;;5.47;;
20997;SDS011;10657;51.276;6.390;2023-07-09T00:21:51;10.77;;;5.38;;
20997;SDS011;10657;51.276;6.390;2023-07-09T00:24:21;11.02;;;6.03;;
20997;SDS011;10657;51.276;6.390;2023-07-09T00:26:47;10.95;;;5.82;;
20997;SDS011;10657;51.276;6.390;2023-07-09T00:29:15;11.98;;;5.90;;
20997;SDS011;10657;51.276;6.390;2023-07-09T00:31:42;15.10;;;7.00;;
20997;SDS011;10657;51.276;6.390;2023-07-09T00:34:10;13.43;;;5.95;;
20997;SDS011;10657;51.276;6.390;2023-07-09T00:36:39;13.05;;;6.20;;
20997;SDS011;10657;51.276;6.390;2023-07-09T00:39:16;10.68;;;6.10;;
20997;SDS011;10657;51.276;6.390;2023-07-09T00:41:44;15.88;;;6.43;;
20997;SDS011;10657;51.276;6.390;2023-07-09T00:44:33;12.30;;;5.45;;
20997;SDS011;10657;51.276;6.390;2023-07-09T00:49:39;13.32;;;6.25;;
20997;SDS011;10657;51.276;6.390;2023-07-09T00:54:45;13.32;;;6.00;;
20997;SDS011;10657;51.276;6.390;2023-07-09T00:57:14;11.20;;;6.22;;
20997;SDS011;10657;51.276;6.390;2023-07-09T00:59:52;13.23;;;5.93;;
20997;SDS011;10657;51.276;6.390;2023-07-09T01:02:23;14.10;;;7.25;;
20997;SDS011;10657;51.276;6.390;2023-07-09T01:04:51;11.52;;;6.63;;
20997;SDS011;10657;51.276;6.390;2023-07-09T01:07:27;12.70;;;6.25;;
20997;SDS011;10657;51.276;6.390;2023-07-09T01:09:55;15.13;;;6.57;;
20997;SDS011;10657;51.276;6.390;2023-07-09T01:12:22;10.57;;;6.05;;
20997;SDS011;10657;51.276;6.390;2023-07-09T01:14:49;11.90;;;6.78;;
20997;SDS011;10657;51.276;6.390;2023-07-09T01:17:19;11.65;;;6.57;;
20997;SDS011;10657;51.276;6.390;2023-07-09T01:19:49;14.25;;;6.80;;
20997;SDS011;10657;51.276;6.390;2023-07-09T01:22:17;17.98;;;6.78;;
20997;SDS011;10657;51.276;6.390;2023-07-09T01:25:02;15.63;;;6.93;;
20997;SDS011;10657;51.276;6.390;2023-07-09T01:27:34;15.52;;;6.80;;
20997;SDS011;10657;51.276;6.390;2023-07-09T01:30:07;13.13;;;6.75;;
20997;SDS011;10657;51.276;6.390;2023-07-09T01:32:58;12.68;;;6.15;;
20997;SDS011;10657;51.276;6.390;2023-07-09T01:35:28;12.85;;;6.75;;
20997;SDS011;10657;51.276;6.390;2023-07-09T01:37:57;12.18;;;6.47;;
20997;SDS011;10657;51.276;6.390;2023-07-09T01:40:24;13.07;;;6.72;;
20997;SDS011;10657;51.276;6.390;2023-07-09T01:42:58;15.30;;;7.22;;
20997;SDS011;10657;51.276;6.390;2023-07-09T01:45:25;13.52;;;6.97;;
20997;SDS011;10657;51.276;6.390;2023-07-09T01:47:53;12.13;;;6.93;;
20997;SDS011;10657;51.276;6.390;2023-07-09T01:50:21;16.42;;;6.88;;
20997;SDS011;10657;51.276;6.390;2023-07-09T01:52:50;15.52;;;7.05;;
20997;SDS011;10657;51.276;6.390;2023-07-09T01:55:17;16.92;;;7.40;;
20997;SDS011;10657;51.276;6.390;2023-07-09T01:57:45;12.32;;;6.35;;
20997;SDS011;10657;51.276;6.390;2023-07-09T02:00:14;13.98;;;7.25;;
20997;SDS011;10657;51.276;6.390;2023-07-09T02:02:43;14.23;;;6.57;;
20997;SDS011;10657;51.276;6.390;2023-07-09T02:05:13;14.65;;;7.25;;
20997;SDS011;10657;51.276;6.390;2023-07-09T02:07:43;13.45;;;6.93;;
20997;SDS011;10657;51.276;6.390;2023-07-09T02:10:11;13.25;;;6.85;;
20997;SDS011;10657;51.276;6.390;2023-07-09T02:12:41;11.07;;;6.85;;
20997;SDS011;10657;51.276;6.390;2023-07-09T02:15:08;12.13;;;6.88;;
20997;SDS011;10657;51.276;6.390;2023-07-09T02:17:36;12.00;;;6.72;;
20997;SDS011;10657;51.276;6.390;2023-07-09T02:20:03;12.55;;;7.15;;
20997;SDS011;10657;51.276;6.390;2023-07-09T02:22:33;17.38;;;7.03;;
20997;SDS011;10657;51.276;6.390;2023-07-09T02:25:00;15.63;;;7.65;;
20997;SDS011;10657;51.276;6.390;2023-07-09T02:27:27;14.65;;;8.13;;
20997;SDS011;10657;51.276;6.390;2023-07-09T02:29:54;18.13;;;7.35;;
20997;SDS011;10657;51.276;6.390;2023-07-09T02:32:22;13.88;;;7.43;;
20997;SDS011;10657;51.276;6.390;2023-07-09T02:34:54;11.63;;;6.65;;
20997;SDS011;10657;51.276;6.390;2023-07-09T02:37:24;11.65;;;7.25;;
20997;SDS011;10657;51.276;6.390;2023-07-09T02:39:52;14.02;;;7.43;;
20997;SDS011;10657;51.276;6.390;2023-07-09T02:42:19;11.30;;;6.53;;
20997;SDS011;10657;51.276;6.390;2023-07-09T02:44:47;15.20;;;7.00;;
20997;SDS011;10657;51.276;6.390;2023-07-09T02:47:14;12.07;;;7.22;;
20997;SDS011;10657;51.276;6.390;2023-07-09T02:49:41;14.55;;;7.45;;
20997;SDS011;10657;51.276;6.390;2023-07-09T02:52:08;11.73;;;6.82;;
20997;SDS011;10657;51.276;6.390;2023-07-09T02:54:35;13.63;;;7.43;;
20997;SDS011;10657;51.276;6.390;2023-07-09T02:57:02;12.80;;;6.57;;
20997;SDS011;10657;51.276;6.390;2023-07-09T02:59:28;12.48;;;7.05;;
20997;SDS011;10657;51.276;6.390;2023-07-09T03:01:55;14.50;;;7.30;;
20997;SDS011;10657;51.276;6.390;2023-07-09T03:04:23;13.75;;;7.20;;
20997;SDS011;10657;51.276;6.390;2023-07-09T03:06:50;13.40;;;7.60;;
20997;SDS011;10657;51.276;6.390;2023-07-09T03:09:17;14.52;;;7.40;;
20997;SDS011;10657;51.276;6.390;2023-07-09T03:11:44;14.60;;;7.70;;
20997;SDS011;10657;51.276;6.390;2023-07-09T03:14:13;14.15;;;7.63;;
20997;SDS011;10657;51.276;6.390;2023-07-09T03:16:40;12.10;;;7.10;;
20997;SDS011;10657;51.276;6.390;2023-07-09T03:19:06;15.93;;;7.85;;
20997;SDS011;10657;51.276;6.390;2023-07-09T03:21:33;13.80;;;7.20;;
20997;SDS011;10657;51.276;6.390;2023-07-09T03:24:00;14.70;;;7.32;;
20997;SDS011;10657;51.276;6.390;2023-07-09T03:26:27;12.95;;;7.10;;
20997;SDS011;10657;51.276;6.390;2023-07-09T03:28:54;13.65;;;7.22;;
20997;SDS011;10657;51.276;6.390;2023-07-09T03:31:21;14.07;;;6.15;;
20997;SDS011;10657;51.276;6.390;2023-07-09T03:33:49;13.18;;;5.90;;
20997;SDS011;10657;51.276;6.390;2023-07-09T03:36:17;13.75;;;6.65;;
20997;SDS011;10657;51.276;6.390;2023-07-09T03:38:46;11.27;;;6.28;;
20997;SDS011;10657;51.276;6.390;2023-07-09T03:41:15;13.30;;;6.45;;
20997;SDS011;10657;51.276;6.390;2023-07-09T03:44:21;11.43;;;6.30;;
20997;SDS011;10657;51.276;6.390;2023-07-09T03:46:48;12.38;;;6.68;;
20997;SDS011;10657;51.276;6.390;2023-07-09T03:49:14;12.43;;;7.18;;
20997;SDS011;10657;51.276;6.390;2023-07-09T03:51:41;14.05;;;5.90;;
20997;SDS011;10657;51.276;6.390;2023-07-09T03:54:08;13.18;;;7.10;;
20997;SDS011;10657;51.276;6.390;2023-07-09T03:56:34;12.38;;;6.50;;
20997;SDS011;10657;51.276;6.390;2023-07-09T03:59:03;14.65;;;7.45;;
20997;SDS011;10657;51.276;6.390;2023-07-09T04:01:29;17.15;;;7.70;;
20997;SDS011;10657;51.276;6.390;2023-07-09T04:03:57;12.55;;;6.93;;
20997;SDS011;10657;51.276;6.390;2023-07-09T04:06:23;12.93;;;7.10;;
20997;SDS011;10657;51.276;6.390;2023-07-09T04:08:50;13.02;;;7.00;;
20997;SDS011;10657;51.276;6.390;2023-07-09T04:11:17;11.88;;;6.70;;
20997;SDS011;10657;51.276;6.390;2023-07-09T04:13:43;16.02;;;7.45;;
20997;SDS011;10657;51.276;6.390;2023-07-09T04:16:10;12.68;;;6.65;;
20997;SDS011;10657;51.276;6.390;2023-07-09T04:18:37;13.05;;;6.90;;
20997;SDS011;10657;51.276;6.390;2023-07-09T04:21:04;13.70;;;6.80;;
20997;SDS011;10657;51.276;6.390;2023-07-09T04:23:30;12.30;;;7.32;;
20997;SDS011;10657;51.276;6.390;2023-07-09T04:25:57;12.77;;;7.30;;
20997;SDS011;10657;51.276;6.390;2023-07-09T04:28:24;15.23;;;7.10;;
20997;SDS011;10657;51.276;6.390;2023-07-09T04:30:51;15.68;;;6.90;;
20997;SDS011;10657;51.276;6.390;2023-07-09T04:33:18;22.15;;;7.68;;
20997;SDS011;10657;51.276;6.390;2023-07-09T04:35:47;14.70;;;7.80;;
20997;SDS011;10657;51.276;6.390;2023-07-09T04:38:14;14.75;;;7.65;;
20997;SDS011;10657;51.276;6.390;2023-07-09T04:40:42;14.15;;;7.47;;
20997;SDS011;10657;51.276;6.390;2023-07-09T04:43:09;13.40;;;7.03;;
20997;SDS011;10657;51.276;6.390;2023-07-09T04:45:36;12.45;;;6.28;;
20997;SDS011;10657;51.276;6.390;2023-07-09T04:48:02;14.45;;;7.03;;
20997;SDS011;10657;51.276;6.390;2023-07-09T04:50:29;14.57;;;6.50;;
20997;SDS011;10657;51.276;6.390;2023-07-09T04:52:56;12.32;;;6.53;;
20997;SDS011;10657;51.276;6.390;2023-07-09T04:55:23;14.00;;;6.10;;
20997;SDS011;10657;51.276;6.390;2023-07-09T04:57:49;16.63;;;6.63;;
20997;SDS011;10657;51.276;6.390;2023-07-09T05:00:16;15.82;;;6.20;;
20997;SDS011;10657;51.276;6.390;2023-07-09T05:02:43;12.88;;;6.05;;
20997;SDS011;10657;51.276;6.390;2023-07-09T05:05:10;10.48;;;5.57;;
20997;SDS011;10657;51.276;6.390;2023-07-09T05:07:38;11.45;;;6.00;;
20997;SDS011;10657;51.276;6.390;2023-07-09T05:10:06;9.40;;;5.55;;
20997;SDS011;10657;51.276;6.390;2023-07-09T05:12:33;14.57;;;6.45;;
20997;SDS011;10657;51.276;6.390;2023-07-09T05:15:00;10.50;;;6.10;;
20997;SDS011;10657;51.276;6.390;2023-07-09T05:17:26;14.32;;;6.63;;
20997;SDS011;10657;51.276;6.390;2023-07-09T05:19:53;12.30;;;6.50;;
20997;SDS011;10657;51.276;6.390;2023-07-09T05:22:20;16.23;;;7.20;;
20997;SDS011;10657;51.276;6.390;2023-07-09T05:24:46;12.05;;;6.10;;
20997;SDS011;10657;51.276;6.390;2023-07-09T05:27:13;13.13;;;6.07;;
20997;SDS011;10657;51.276;6.390;2023-07-09T05:29:40;14.73;;;6.70;;
20997;SDS011;10657;51.276;6.390;2023-07-09T05:32:06;10.40;;;5.25;;
20997;SDS011;10657;51.276;6.390;2023-07-09T05:34:33;11.20;;;6.18;;
20997;SDS011;10657;51.276;6.390;2023-07-09T05:37:00;13.20;;;6.93;;
20997;SDS011;10657;51.276;6.390;2023-07-09T05:39:27;12.68;;;6.80;;
20997;SDS011;10657;51.276;6.390;2023-07-09T05:41:53;9.10;;;4.68;;
20997;SDS011;10657;51.276;6.390;2023-07-09T05:44:20;14.07;;;7.03;;
20997;SDS011;10657;51.276;6.390;2023-07-09T05:46:47;12.30;;;6.10;;
20997;SDS011;10657;51.276;6.390;2023-07-09T05:49:13;14.23;;;6.25;;
20997;SDS011;10657;51.276;6.390;2023-07-09T05:51:40;17.40;;;7.47;;
20997;SDS011;10657;51.276;6.390;2023-07-09T05:54:07;15.20;;;6.38;;
20997;SDS011;10657;51.276;6.390;2023-07-09T05:56:34;13.38;;;6.32;;
20997;SDS011;10657;51.276;6.390;2023-07-09T06:04:18;10.27;;;5.13;;
20997;SDS011;10657;51.276;6.390;2023-07-09T06:06:45;14.38;;;7.13;;
20997;SDS011;10657;51.276;6.390;2023-07-09T06:09:12;11.73;;;5.88;;
20997;SDS011;10657;51.276;6.390;2023-07-09T06:11:38;12.60;;;5.78;;
20997;SDS011;10657;51.276;6.390;2023-07-09T06:14:05;13.20;;;7.50;;
20997;SDS011;10657;51.276;6.390;2023-07-09T06:16:32;10.88;;;5.85;;
20997;SDS011;10657;51.276;6.390;2023-07-09T06:18:59;13.48;;;5.85;;
20997;SDS011;10657;51.276;6.390;2023-07-09T06:21:25;11.40;;;6.57;;
20997;SDS011;10657;51.276;6.390;2023-07-09T06:23:52;11.70;;;6.05;;
20997;SDS011;10657;51.276;6.390;2023-07-09T06:26:19;15.88;;;6.55;;
20997;SDS011;10657;51.276;6.390;2023-07-09T06:28:45;10.80;;;5.65;;
20997;SDS011;10657;51.276;6.390;2023-07-09T06:31:12;12.55;;;6.65;;
20997;SDS011;10657;51.276;6.390;2023-07-09T06:33:39;13.50;;;6.82;;
20997;SDS011;10657;51.276;6.390;2023-07-09T06:36:05;10.38;;;5.63;;
20997;SDS011;10657;51.276;6.390;2023-07-09T06:38:33;16.58;;;6.20;;
20997;SDS011;10657;51.276;6.390;2023-07-09T06:40:59;14.27;;;6.82;;
20997;SDS011;10657;51.276;6.390;2023-07-09T06:43:26;18.38;;;6.50;;
20997;SDS011;10657;51.276;6.390;2023-07-09T06:45:57;13.32;;;7.10;;
20997;SDS011;10657;51.276;6.390;2023-07-09T06:48:26;16.85;;;7.25;;
20997;SDS011;10657;51.276;6.390;2023-07-09T06:50:54;9.30;;;5.20;;
20997;SDS011;10657;51.276;6.390;2023-07-09T06:53:22;12.63;;;5.95;;
20997;SDS011;10657;51.276;6.390;2023-07-09T06:55:50;14.52;;;8.07;;
20997;SDS011;10657;51.276;6.390;2023-07-09T06:58:19;11.52;;;6.75;;
20997;SDS011;10657;51.276;6.390;2023-07-09T07:00:45;10.70;;;5.93;;
20997;SDS011;10657;51.276;6.390;2023-07-09T07:03:14;14.48;;;6.32;;
20997;SDS011;10657;51.276;6.390;2023-07-09T07:05:47;13.50;;;6.78;;
20997;SDS011;10657;51.276;6.390;2023-07-09T07:08:17;8.90;;;4.63;;
20997;SDS011;10657;51.276;6.390;2023-07-09T07:10:45;9.40;;;5.22;;
20997;SDS011;10657;51.276;6.390;2023-07-09T07:13:13;9.25;;;5.18;;
20997;SDS011;10657;51.276;6.390;2023-07-09T07:15:40;11.52;;;5.40;;
20997;SDS011;10657;51.276;6.390;2023-07-09T07:18:07;14.15;;;6.35;;
20997;SDS011;10657;51.276;6.390;2023-07-09T07:20:34;10.70;;;5.93;;
20997;SDS011;10657;51.276;6.390;2023-07-09T07:23:01;11.32;;;5.70;;
20997;SDS011;10657;51.276;6.390;2023-07-09T07:25:28;9.75;;;5.68;;
20997;SDS011;10657;51.276;6.390;2023-07-09T07:27:56;14.02;;;6.10;;
20997;SDS011;10657;51.276;6.390;2023-07-09T07:30:23;9.45;;;5.70;;
20997;SDS011;10657;51.276;6.390;2023-07-09T07:32:51;12.82;;;5.97;;
20997;SDS011;10657;51.276;6.390;2023-07-09T07:35:18;10.82;;;6.35;;
20997;SDS011;10657;51.276;6.390;2023-07-09T07:37:45;10.20;;;5.55;;
20997;SDS011;10657;51.276;6.390;2023-07-09T07:40:12;10.77;;;5.35;;
20997;SDS011;10657;51.276;6.390;2023-07-09T07:42:39;13.75;;;6.43;;
20997;SDS011;10657;51.276;6.390;2023-07-09T07:45:06;13.05;;;6.22;;
20997;SDS011;10657;51.276;6.390;2023-07-09T07:47:33;9.48;;;4.95;;
20997;SDS011;10657;51.276;6.390;2023-07-09T07:50:03;11.45;;;5.57;;
20997;SDS011;10657;51.276;6.390;2023-07-09T07:52:31;13.30;;;6.70;;
20997;SDS011;10657;51.276;6.390;2023-07-09T07:54:58;9.52;;;4.72;;
20997;SDS011;10657;51.276;6.390;2023-07-09T07:57:24;10.77;;;5.78;;
20997;SDS011;10657;51.276;6.390;2023-07-09T07:59:52;15.57;;;6.25;;
20997;SDS011;10657;51.276;6.390;2023-07-09T08:02:19;12.75;;;6.80;;
20997;SDS011;10657;51.276;6.390;2023-07-09T08:04:45;10.48;;;5.72;;
20997;SDS011;10657;51.276;6.390;2023-07-09T08:07:12;13.90;;;5.97;;
20997;SDS011;10657;51.276;6.390;2023-07-09T08:09:40;9.20;;;4.80;;
20997;SDS011;10657;51.276;6.390;2023-07-09T08:12:07;9.85;;;5.55;;
20997;SDS011;10657;51.276;6.390;2023-07-09T08:14:41;11.85;;;5.47;;
20997;SDS011;10657;51.276;6.390;2023-07-09T08:17:11;11.90;;;5.18;;
20997;SDS011;10657;51.276;6.390;2023-07-09T08:19:47;10.35;;;4.60;;
20997;SDS011;10657;51.276;6.390;2023-07-09T08:22:16;9.13;;;5.05;;
20997;SDS011;10657;51.276;6.390;2023-07-09T08:24:46;9.10;;;5.57;;
20997;SDS011;10657;51.276;6.390;2023-07-09T08:27:12;9.68;;;4.57;;
20997;SDS011;10657;51.276;6.390;2023-07-09T08:29:39;13.27;;;6.03;;
20997;SDS011;10657;51.276;6.390;2023-07-09T08:32:08;12.15;;;5.57;;
20997;SDS011;10657;51.276;6.390;2023-07-09T08:34:37;13.05;;;4.75;;
20997;SDS011;10657;51.276;6.390;2023-07-09T08:37:11;12.98;;;6.32;;
20997;SDS011;10657;51.276;6.390;2023-07-09T08:42:44;9.68;;;5.40;;
20997;SDS011;10657;51.276;6.390;2023-07-09T08:48:14;11.55;;;5.82;;
20997;SDS011;10657;51.276;6.390;2023-07-09T08:50:53;10.43;;;5.13;;
20997;SDS011;10657;51.276;6.390;2023-07-09T08:56:22;13.88;;;6.88;;
20997;SDS011;10657;51.276;6.390;2023-07-09T08:58:50;10.73;;;5.15;;
20997;SDS011;10657;51.276;6.390;2023-07-09T09:01:23;10.07;;;5.35;;
20997;SDS011;10657;51.276;6.390;2023-07-09T09:04:01;10.18;;;5.60;;
20997;SDS011;10657;51.276;6.390;2023-07-09T09:06:31;10.15;;;4.68;;
20997;SDS011;10657;51.276;6.390;2023-07-09T09:11:52;10.52;;;5.95;;
20997;SDS011;10657;51.276;6.390;2023-07-09T09:14:39;9.15;;;4.68;;
20997;SDS011;10657;51.276;6.390;2023-07-09T09:17:16;13.57;;;5.55;;
20997;SDS011;10657;51.276;6.390;2023-07-09T09:19:46;10.93;;;5.90;;
20997;SDS011;10657;51.276;6.390;2023-07-09T09:22:21;14.13;;;5.80;;
20997;SDS011;10657;51.276;6.390;2023-07-09T09:24:53;10.10;;;5.25;;
20997;SDS011;10657;51.276;6.390;2023-07-09T09:27:24;9.40;;;4.43;;
20997;SDS011;10657;51.276;6.390;2023-07-09T09:29:51;10.43;;;4.78;;
20997;SDS011;10657;51.276;6.390;2023-07-09T09:32:20;9.38;;;4.70;;
20997;SDS011;10657;51.276;6.390;2023-07-09T09:35:11;9.63;;;5.40;;
20997;SDS011;10657;51.276;6.390;2023-07-09T09:37:39;13.32;;;5.55;;
20997;SDS011;10657;51.276;6.390;2023-07-09T09:40:08;9.98;;;4.65;;
20997;SDS011;10657;51.276;6.390;2023-07-09T09:42:43;10.65;;;5.50;;
20997;SDS011;10657;51.276;6.390;2023-07-09T09:45:11;10.32;;;5.47;;
20997;SDS011;10657;51.276;6.390;2023-07-09T09:47:43;9.07;;;5.15;;
20997;SDS011;10657;51.276;6.390;2023-07-09T09:50:15;12.27;;;5.68;;
20997;SDS011;10657;51.276;6.390;2023-07-09T09:52:43;10.38;;;4.70;;
20997;SDS011;10657;51.276;6.390;2023-07-09T09:55:33;8.38;;;4.20;;
20997;SDS011;10657;51.276;6.390;2023-07-09T09:57:59;8.57;;;4.40;;
20997;SDS011;10657;51.276;6.390;2023-07-09T10:00:29;9.93;;;4.13;;
20997;SDS011;10657;51.276;6.390;2023-07-09T10:03:01;8.02;;;4.32;;
20997;SDS011;10657;51.276;6.390;2023-07-09T10:05:35;9.05;;;4.20;;
20997;SDS011;10657;51.276;6.390;2023-07-09T10:08:55;8.68;;;4.13;;
20997;SDS011;10657;51.276;6.390;2023-07-09T10:11:19;12.85;;;4.50;;
20997;SDS011;10657;51.276;6.390;2023-07-09T10:14:00;9.45;;;5.57;;
20997;SDS011;10657;51.276;6.390;2023-07-09T10:16:36;10.27;;;5.63;;
20997;SDS011;10657;51.276;6.390;2023-07-09T10:19:12;6.88;;;4.03;;
20997;SDS011;10657;51.276;6.390;2023-07-09T10:21:58;11.50;;;4.10;;
20997;SDS011;10657;51.276;6.390;2023-07-09T10:27:36;9.13;;;4.45;;
20997;SDS011;10657;51.276;6.390;2023-07-09T10:35:27;8.27;;;4.22;;
20997;SDS011;10657;51.276;6.390;2023-07-09T10:41:09;11.32;;;4.70;;
20997;SDS011;10657;51.276;6.390;2023-07-09T10:43:50;9.63;;;4.63;;
20997;SDS011;10657;51.276;6.390;2023-07-09T10:46:25;11.20;;;4.88;;
20997;SDS011;10657;51.276;6.390;2023-07-09T10:48:57;11.48;;;5.43;;
20997;SDS011;10657;51.276;6.390;2023-07-09T10:51:29;9.35;;;4.78;;
20997;SDS011;10657;51.276;6.390;2023-07-09T10:57:02;9.05;;;5.22;;
20997;SDS011;10657;51.276;6.390;2023-07-09T10:59:46;9.65;;;4.25;;
20997;SDS011;10657;51.276;6.390;2023-07-09T11:02:17;7.70;;;3.92;;
20997;SDS011;10657;51.276;6.390;2023-07-09T11:07:23;10.10;;;5.57;;
20997;SDS011;10657;51.276;6.390;2023-07-09T11:09:55;9.38;;;4.78;;
20997;SDS011;10657;51.276;6.390;2023-07-09T11:12:38;10.38;;;4.88;;
20997;SDS011;10657;51.276;6.390;2023-07-09T11:15:13;8.77;;;4.50;;
20997;SDS011;10657;51.276;6.390;2023-07-09T11:17:44;9.13;;;4.85;;
20997;SDS011;10657;51.276;6.390;2023-07-09T11:20:20;10.30;;;4.97;;
20997;SDS011;10657;51.276;6.390;2023-07-09T11:22:52;8.07;;;4.43;;
20997;SDS011;10657;51.276;6.390;2023-07-09T11:25:28;10.15;;;5.50;;
20997;SDS011;10657;51.276;6.390;2023-07-09T11:28:02;7.68;;;3.58;;
20997;SDS011;10657;51.276;6.390;2023-07-09T11:30:31;10.65;;;5.00;;
20997;SDS011;10657;51.276;6.390;2023-07-09T11:33:02;7.63;;;4.32;;
20997;SDS011;10657;51.276;6.390;2023-07-09T11:35:51;14.98;;;5.10;;
20997;SDS011;10657;51.276;6.390;2023-07-09T11:38:23;12.30;;;5.72;;
20997;SDS011;10657;51.276;6.390;2023-07-09T11:40:54;12.73;;;5.93;;
20997;SDS011;10657;51.276;6.390;2023-07-09T11:43:29;10.90;;;5.72;;
20997;SDS011;10657;51.276;6.390;2023-07-09T11:46:03;11.65;;;5.32;;
20997;SDS011;10657;51.276;6.390;2023-07-09T11:48:37;11.18;;;4.65;;
20997;SDS011;10657;51.276;6.390;2023-07-09T11:51:08;13.18;;;5.25;;
20997;SDS011;10657;51.276;6.390;2023-07-09T11:53:45;10.68;;;4.88;;
20997;SDS011;10657;51.276;6.390;2023-07-09T11:56:17;8.65;;;4.20;;
20997;SDS011;10657;51.276;6.390;2023-07-09T11:58:49;9.52;;;5.07;;
20997;SDS011;10657;51.276;6.390;2023-07-09T12:01:28;10.70;;;5.07;;
20997;SDS011;10657;51.276;6.390;2023-07-09T12:04:00;11.88;;;5.47;;
20997;SDS011;10657;51.276;6.390;2023-07-09T12:06:28;8.52;;;4.72;;
20997;SDS011;10657;51.276;6.390;2023-07-09T12:11:32;11.70;;;4.80;;
20997;SDS011;10657;51.276;6.390;2023-07-09T12:14:04;12.23;;;5.15;;
20997;SDS011;10657;51.276;6.390;2023-07-09T12:16:42;13.07;;;5.00;;
20997;SDS011;10657;51.276;6.390;2023-07-09T12:19:18;11.00;;;5.32;;
20997;SDS011;10657;51.276;6.390;2023-07-09T12:21:51;10.93;;;4.75;;
20997;SDS011;10657;51.276;6.390;2023-07-09T12:24:22;11.77;;;4.60;;
20997;SDS011;10657;51.276;6.390;2023-07-09T12:27:01;11.75;;;5.53;;
20997;SDS011;10657;51.276;6.390;2023-07-09T12:29:30;11.60;;;5.25;;
20997;SDS011;10657;51.276;6.390;2023-07-09T12:32:10;9.98;;;5.15;;
20997;SDS011;10657;51.276;6.390;2023-07-09T12:34:39;11.15;;;5.28;;
20997;SDS011;10657;51.276;6.390;2023-07-09T12:37:11;13.27;;;5.47;;
20997;SDS011;10657;51.276;6.390;2023-07-09T12:39:40;13.45;;;5.30;;
20997;SDS011;10657;51.276;6.390;2023-07-09T12:42:17;10.90;;;4.75;;
20997;SDS011;10657;51.276;6.390;2023-07-09T12:44:46;13.13;;;5.53;;
20997;SDS011;10657;51.276;6.390;2023-07-09T12:47:15;10.90;;;4.47;;
20997;SDS011;10657;51.276;6.390;2023-07-09T12:53:11;10.02;;;4.20;;
20997;SDS011;10657;51.276;6.390;2023-07-09T12:55:46;13.48;;;5.05;;
20997;SDS011;10657;51.276;6.390;2023-07-09T12:58:20;11.65;;;5.40;;
20997;SDS011;10657;51.276;6.390;2023-07-09T13:00:49;12.38;;;5.60;;
20997;SDS011;10657;51.276;6.390;2023-07-09T13:03:18;12.95;;;5.55;;
20997;SDS011;10657;51.276;6.390;2023-07-09T13:05:51;11.27;;;5.47;;
20997;SDS011;10657;51.276;6.390;2023-07-09T13:08:26;11.30;;;5.65;;
20997;SDS011;10657;51.276;6.390;2023-07-09T13:10:54;13.60;;;5.82;;
20997;SDS011;10657;51.276;6.390;2023-07-09T13:13:22;13.60;;;5.88;;
20997;SDS011;10657;51.276;6.390;2023-07-09T13:15:57;13.63;;;6.10;;
20997;SDS011;10657;51.276;6.390;2023-07-09T13:18:28;11.38;;;6.03;;
20997;SDS011;10657;51.276;6.390;2023-07-09T13:20:55;15.23;;;5.95;;
20997;SDS011;10657;51.276;6.390;2023-07-09T13:23:26;13.30;;;5.90;;
20997;SDS011;10657;51.276;6.390;2023-07-09T13:25:54;11.45;;;6.45;;
20997;SDS011;10657;51.276;6.390;2023-07-09T13:28:30;13.63;;;5.95;;
20997;SDS011;10657;51.276;6.390;2023-07-09T13:30:59;16.08;;;6.00;;
20997;SDS011;10657;51.276;6.390;2023-07-09T13:33:27;11.77;;;5.85;;
20997;SDS011;10657;51.276;6.390;2023-07-09T13:35:54;13.65;;;5.78;;
20997;SDS011;10657;51.276;6.390;2023-07-09T13:38:22;12.70;;;5.80;;
20997;SDS011;10657;51.276;6.390;2023-07-09T13:40:54;11.98;;;5.68;;
20997;SDS011;10657;51.276;6.390;2023-07-09T13:45:57;10.30;;;5.90;;
20997;SDS011;10657;51.276;6.390;2023-07-09T13:48:25;8.73;;;4.35;;
20997;SDS011;10657;51.276;6.390;2023-07-09T13:50:53;10.70;;;5.63;;
20997;SDS011;10657;51.276;6.390;2023-07-09T13:53:24;16.52;;;5.50;;
20997;SDS011;10657;51.276;6.390;2023-07-09T13:55:55;12.85;;;5.57;;
20997;SDS011;10657;51.276;6.390;2023-07-09T13:58:23;15.02;;;5.75;;
20997;SDS011;10657;51.276;6.390;2023-07-09T14:00:54;12.13;;;5.70;;
20997;SDS011;10657;51.276;6.390;2023-07-09T14:03:26;18.05;;;6.32;;
20997;SDS011;10657;51.276;6.390;2023-07-09T14:05:56;16.85;;;6.15;;
20997;SDS011;10657;51.276;6.390;2023-07-09T14:08:23;11.73;;;5.53;;
20997;SDS011;10657;51.276;6.390;2023-07-09T14:10:50;11.05;;;5.72;;
20997;SDS011;10657;51.276;6.390;2023-07-09T14:13:17;10.93;;;4.80;;
20997;SDS011;10657;51.276;6.390;2023-07-09T14:15:47;12.93;;;4.90;;
20997;SDS011;10657;51.276;6.390;2023-07-09T14:18:18;14.40;;;5.55;;
20997;SDS011;10657;51.276;6.390;2023-07-09T14:20:47;14.45;;;6.50;;
20997;SDS011;10657;51.276;6.390;2023-07-09T14:23:16;14.98;;;6.00;;
20997;SDS011;10657;51.276;6.390;2023-07-09T14:25:44;12.82;;;6.25;;
20997;SDS011;10657;51.276;6.390;2023-07-09T14:28:15;13.30;;;5.90;;
20997;SDS011;10657;51.276;6.390;2023-07-09T14:30:43;11.30;;;5.82;;
20997;SDS011;10657;51.276;6.390;2023-07-09T14:33:13;14.85;;;6.97;;
20997;SDS011;10657;51.276;6.390;2023-07-09T14:35:41;13.35;;;8.13;;
20997;SDS011;10657;51.276;6.390;2023-07-09T14:38:18;19.17;;;11.10;;
20997;SDS011;10657;51.276;6.390;2023-07-09T14:40:51;19.35;;;11.18;;
20997;SDS011;10657;51.276;6.390;2023-07-09T14:43:20;24.08;;;14.48;;
20997;SDS011;10657;51.276;6.390;2023-07-09T14:45:47;18.67;;;12.73;;
20997;SDS011;10657;51.276;6.390;2023-07-09T14:48:17;18.92;;;11.82;;
20997;SDS011;10657;51.276;6.390;2023-07-09T14:50:46;14.30;;;6.75;;
20997;SDS011;10657;51.276;6.390;2023-07-09T14:53:20;12.40;;;6.53;;
20997;SDS011;10657;51.276;6.390;2023-07-09T14:55:51;18.38;;;10.73;;
20997;SDS011;10657;51.276;6.390;2023-07-09T14:58:21;23.67;;;12.63;;
20997;SDS011;10657;51.276;6.390;2023-07-09T15:00:49;16.92;;;11.98;;
20997;SDS011;10657;51.276;6.390;2023-07-09T15:03:18;16.00;;;11.38;;
20997;SDS011;10657;51.276;6.390;2023-07-09T15:05:45;17.98;;;12.23;;
20997;SDS011;10657;51.276;6.390;2023-07-09T15:08:13;17.60;;;13.00;;
20997;SDS011;10657;51.276;6.390;2023-07-09T15:10:41;17.92;;;11.90;;
20997;SDS011;10657;51.276;6.390;2023-07-09T15:13:18;22.60;;;12.43;;
20997;SDS011;10657;51.276;6.390;2023-07-09T15:15:48;19.63;;;12.15;;
20997;SDS011;10657;51.276;6.390;2023-07-09T15:18:15;15.73;;;12.80;;
20997;SDS011;10657;51.276;6.390;2023-07-09T15:20:53;20.33;;;12.98;;
20997;SDS011;10657;51.276;6.390;2023-07-09T15:23:22;20.73;;;12.70;;
20997;SDS011;10657;51.276;6.390;2023-07-09T15:25:49;20.52;;;13.50;;
20997;SDS011;10657;51.276;6.390;2023-07-09T15:28:17;23.17;;;14.55;;
20997;SDS011;10657;51.276;6.390;2023-07-09T15:30:44;20.05;;;14.48;;
20997;SDS011;10657;51.276;6.390;2023-07-09T15:33:15;25.38;;;15.85;;
20997;SDS011;10657;51.276;6.390;2023-07-09T15:35:44;21.45;;;16.30;;
20997;SDS011;10657;51.276;6.390;2023-07-09T15:40:49;23.13;;;18.58;;
20997;SDS011;10657;51.276;6.390;2023-07-09T15:43:16;22.70;;;18.33;;